Terminal Aerodrome Forecast
Issued by NWS Dodge City, KS

Home | Current Version | Previous Version | Graphics & Text | Print | Product List | Glossary Off
Versions: 1 2 3 4 5 6 7 8 9 10 11 12 13 14 15 16 17 18 19 20 21 22 23 24 25 26 27 28 29 30 31 32 33

000
FTUS43 KDDC 280138 AAB
TAFDDC
TAF AMD
KDDC 280138Z 2802/2824 22020G30KT P6SM VCTS BKN070CB
     FM280400 19010KT P6SM BKN150
     FM281200 VRB06KT P6SM OVC050=

USA.gov is the U.S. government's official web portal to all federal, state and local government web resources and services.